createdAt,value
2019-05-07T00:02:10.584Z,101436.80
2019-05-07T00:04:42.806Z,101438.13
2019-05-07T00:07:14.152Z,101430.57
2019-05-07T00:09:45.343Z,101434.54
2019-05-07T00:12:16.585Z,101427.69
2019-05-07T00:14:58.931Z,101425.74
2019-05-07T00:17:22.704Z,101425.89
2019-05-07T00:19:53.565Z,101421.09
2019-05-07T00:22:24.793Z,101425.19
2019-05-07T00:24:55.882Z,101423.86
2019-05-07T00:27:27.085Z,101420.74
2019-05-07T00:29:58.296Z,101420.50
2019-05-07T00:32:29.542Z,101417.63
2019-05-07T00:35:03.727Z,101422.56
2019-05-07T00:37:49.092Z,101416.91
2019-05-07T00:40:33.562Z,101412.94
2019-05-07T00:43:17.624Z,101412.34
2019-05-07T00:45:58.365Z,101415.59
2019-05-07T00:48:29.564Z,101413.05
2019-05-07T00:51:18.548Z,101413.07
2019-05-07T00:53:51.891Z,101411.00
2019-05-07T00:56:22.913Z,101409.83
2019-05-07T00:58:54.407Z,101411.62
2019-05-07T01:01:25.666Z,101410.06
2019-05-07T01:03:56.993Z,101411.86
2019-05-07T01:06:28.234Z,101411.14
2019-05-07T01:08:59.469Z,101412.09
2019-05-07T01:11:30.779Z,101415.64
2019-05-07T01:14:02.798Z,101412.63
2019-05-07T01:16:34.222Z,101412.97
2019-05-07T01:19:05.477Z,101418.02
2019-05-07T01:21:36.827Z,101409.94
2019-05-07T01:24:07.957Z,101410.16
2019-05-07T01:26:39.109Z,101412.06
2019-05-07T01:29:10.333Z,101407.96
2019-05-07T01:31:47.675Z,101412.47
2019-05-07T01:34:32.270Z,101410.53
2019-05-07T01:37:03.677Z,101416.48
2019-05-07T01:39:34.860Z,101413.05
2019-05-07T01:42:08.014Z,101410.22
2019-05-07T01:44:39.166Z,101409.91
2019-05-07T01:47:12.848Z,101413.05
2019-05-07T01:49:43.278Z,101416.08
2019-05-07T01:52:14.530Z,101420.57
2019-05-07T01:54:47.420Z,101419.23
2019-05-07T01:57:18.736Z,101418.81
2019-05-07T01:59:49.933Z,101414.08
2019-05-07T02:02:32.041Z,101416.20
2019-05-07T02:05:22.888Z,101415.77
2019-05-07T02:07:58.422Z,101418.58
2019-05-07T02:10:37.913Z,101413.84
2019-05-07T02:13:09.155Z,101415.09
2019-05-07T02:15:42.423Z,101415.78
2019-05-07T02:18:13.290Z,101407.03
2019-05-07T02:20:44.524Z,101413.05
2019-05-07T02:23:15.695Z,101414.23
2019-05-07T02:25:46.974Z,101413.77
2019-05-07T02:28:18.208Z,101415.25
2019-05-07T02:30:49.472Z,101409.89
2019-05-07T02:33:23.039Z,101414.92
2019-05-07T02:35:53.686Z,101416.30
2019-05-07T02:38:33.954Z,101417.91
2019-05-07T02:41:15.904Z,101416.66
2019-05-07T02:43:47.140Z,101413.92
2019-05-07T02:46:43.544Z,101410.33
2019-05-07T02:49:39.420Z,101411.61
2019-05-07T02:52:23.112Z,101412.64
2019-05-07T02:55:05.202Z,101408.61
2019-05-07T02:57:36.598Z,101412.38
2019-05-07T03:00:08.850Z,101404.83
2019-05-07T03:02:43.549Z,101405.89
2019-05-07T03:05:13.854Z,101402.02
2019-05-07T03:07:45.577Z,101407.91
2019-05-07T03:10:16.923Z,101402.45
2019-05-07T03:12:48.354Z,101393.28
2019-05-07T03:15:19.594Z,101396.77
2019-05-07T03:17:53.588Z,101401.70
2019-05-07T03:20:28.050Z,101403.94
2019-05-07T03:23:03.169Z,101402.87
2019-05-07T03:25:54.127Z,101398.78
2019-05-07T03:28:26.066Z,101394.47
2019-05-07T03:31:16.833Z,101399.17
2019-05-07T03:34:08.254Z,101403.13
2019-05-07T03:36:48.939Z,101405.77
2019-05-07T03:39:20.493Z,101406.93
2019-05-07T03:41:53.139Z,101410.55
2019-05-07T03:44:39.130Z,101407.10
2019-05-07T03:47:23.978Z,101404.78
2019-05-07T03:49:55.334Z,101405.33
2019-05-07T03:52:26.547Z,101395.05
2019-05-07T03:54:57.769Z,101401.58
2019-05-07T03:57:29.026Z,101396.93
2019-05-07T04:00:03.923Z,101400.72
2019-05-07T04:02:33.421Z,101397.66
2019-05-07T04:05:05.253Z,101396.84
2019-05-07T04:07:36.589Z,101400.13
2019-05-07T04:10:10.277Z,101398.47
2019-05-07T04:12:43.852Z,101396.91
2019-05-07T04:15:18.827Z,101396.08
2019-05-07T04:17:47.263Z,101395.14
2019-05-07T04:20:18.873Z,101394.67
2019-05-07T04:22:53.324Z,101394.09
2019-05-07T04:25:30.319Z,101397.70
2019-05-07T04:28:07.755Z,101385.13
2019-05-07T04:30:39.495Z,101385.89
2019-05-07T04:33:13.094Z,101391.08
2019-05-07T04:36:02.852Z,101386.49
2019-05-07T04:38:33.544Z,101388.91
2019-05-07T04:41:04.857Z,101384.44
2019-05-07T04:43:36.091Z,101389.72
2019-05-07T04:46:07.352Z,101385.64
2019-05-07T04:48:38.611Z,101384.44
2019-05-07T04:51:12.678Z,101381.29
2019-05-07T04:53:43.941Z,101385.99
2019-05-07T04:56:15.194Z,101385.61
2019-05-07T04:58:46.384Z,101384.67
2019-05-07T05:01:19.183Z,101380.23
2019-05-07T05:03:50.500Z,101378.67
2019-05-07T05:06:24.083Z,101380.84
2019-05-07T05:08:56.176Z,101381.80
2019-05-07T05:11:27.790Z,101381.45
2019-05-07T05:13:59.010Z,101382.28
2019-05-07T05:16:30.194Z,101385.04
2019-05-07T05:19:02.528Z,101386.25
2019-05-07T05:22:07.984Z,101385.28
2019-05-07T05:24:43.079Z,101384.31
2019-05-07T05:27:14.382Z,101382.64
2019-05-07T05:29:45.609Z,101384.76
2019-05-07T05:32:16.805Z,101385.93
2019-05-07T05:34:48.039Z,101392.62
2019-05-07T05:37:19.286Z,101391.71
2019-05-07T05:40:04.841Z,101385.48
2019-05-07T05:42:36.307Z,101378.99
2019-05-07T05:45:27.281Z,101381.52
2019-05-07T05:48:04.706Z,101387.84
2019-05-07T05:50:34.392Z,101384.30
2019-05-07T05:53:18.159Z,101385.70
2019-05-07T05:55:49.944Z,101378.02
2019-05-07T05:58:32.523Z,101382.50
2019-05-07T06:01:26.463Z,101383.45
2019-05-07T06:04:08.313Z,101383.66
2019-05-07T06:07:07.909Z,101384.39
2019-05-07T06:09:42.491Z,101387.21
2019-05-07T06:12:44.868Z,101381.76
2019-05-07T06:15:26.967Z,101381.14
2019-05-07T06:18:17.940Z,101371.73
2019-05-07T06:20:52.289Z,101374.14
2019-05-07T06:23:29.859Z,101372.65
2019-05-07T06:26:04.770Z,101367.40
2019-05-07T06:28:34.181Z,101365.70
2019-05-07T06:31:05.451Z,101367.73
2019-05-07T06:33:36.726Z,101367.00
2019-05-07T06:36:07.986Z,101373.75
2019-05-07T06:38:53.801Z,101367.94
2019-05-07T06:41:58.949Z,101374.55
2019-05-07T06:44:31.993Z,101370.08
2019-05-07T06:47:03.128Z,101373.44
2019-05-07T06:49:34.396Z,101376.61
2019-05-07T06:52:08.712Z,101373.77
2019-05-07T06:54:40.013Z,101369.71
2019-05-07T06:57:13.013Z,101372.50
2019-05-07T06:59:48.965Z,101380.58
2019-05-07T07:02:26.523Z,101370.42
2019-05-07T07:05:04.069Z,101373.00
2019-05-07T07:07:42.127Z,101379.29
2019-05-07T07:10:32.073Z,101373.61
2019-05-07T07:13:02.754Z,101368.48
2019-05-07T07:15:33.983Z,101379.25
2019-05-07T07:18:05.288Z,101373.28
2019-05-07T07:20:36.516Z,101370.92
2019-05-07T07:23:07.808Z,101371.42
2019-05-07T07:25:39.035Z,101372.84
2019-05-07T07:28:12.272Z,101365.92
2019-05-07T07:31:02.400Z,101368.83
2019-05-07T07:33:36.810Z,101361.55
2019-05-07T07:36:08.099Z,101355.06
2019-05-07T07:38:39.347Z,101362.24
2019-05-07T07:41:17.506Z,101355.33
2019-05-07T07:43:48.758Z,101355.08
2019-05-07T07:46:21.926Z,101355.11
2019-05-07T07:49:06.812Z,101347.84
2019-05-07T07:51:37.776Z,101346.02
2019-05-07T07:53:58.771Z,101341.84
2019-05-07T07:56:50.068Z,101349.47
2019-05-07T07:59:34.570Z,101345.63
2019-05-07T08:02:32.198Z,101347.66
2019-05-07T08:05:03.684Z,101344.97
2019-05-07T08:07:34.966Z,101345.07
2019-05-07T08:10:07.168Z,101340.66
2019-05-07T08:12:38.409Z,101341.08
2019-05-07T08:15:20.128Z,101352.24
2019-05-07T08:17:43.519Z,101345.20
2019-05-07T08:20:15.478Z,101345.84
2019-05-07T08:22:46.746Z,101350.11
2019-05-07T08:25:18.263Z,101342.82
2019-05-07T08:27:49.535Z,101340.64
2019-05-07T08:30:23.545Z,101340.43
2019-05-07T08:33:02.003Z,101338.91
2019-05-07T08:35:45.603Z,101348.87
2019-05-07T08:38:16.999Z,101345.13
2019-05-07T08:40:48.977Z,101342.80
2019-05-07T08:43:21.969Z,101335.28
2019-05-07T08:46:11.980Z,101334.40
2019-05-07T08:48:49.174Z,101339.70
2019-05-07T08:51:22.260Z,101336.58
2019-05-07T08:54:05.947Z,101342.86
2019-05-07T08:56:38.626Z,101333.53
2019-05-07T08:59:12.237Z,101335.98
2019-05-07T09:01:43.461Z,101336.25
2019-05-07T09:04:14.855Z,101328.47
2019-05-07T09:06:46.037Z,101331.03
2019-05-07T09:09:17.388Z,101331.13
2019-05-07T09:11:48.718Z,101326.90
2019-05-07T09:14:19.965Z,101318.37
2019-05-07T09:16:52.725Z,101323.27
2019-05-07T09:19:24.227Z,101317.58
2019-05-07T09:21:55.464Z,101320.75
2019-05-07T09:24:26.742Z,101315.10
2019-05-07T09:27:32.736Z,101317.27
2019-05-07T09:30:28.266Z,101319.26
2019-05-07T09:33:07.633Z,101317.84
2019-05-07T09:35:53.020Z,101316.22
2019-05-07T09:38:24.303Z,101317.56
2019-05-07T09:40:57.135Z,101311.91
2019-05-07T09:43:28.548Z,101309.19
2019-05-07T09:45:59.792Z,101310.53
2019-05-07T09:48:31.183Z,101316.17
2019-05-07T09:51:02.426Z,101317.81
2019-05-07T09:53:33.678Z,101309.37
2019-05-07T09:56:05.447Z,101309.23
2019-05-07T09:58:39.125Z,101302.58
2019-05-07T10:01:09.684Z,101303.19
2019-05-07T10:03:42.912Z,101298.16
2019-05-07T10:06:14.459Z,101291.37
2019-05-07T10:08:52.300Z,101295.71
2019-05-07T10:11:33.093Z,101298.34
2019-05-07T10:14:08.589Z,101292.17
2019-05-07T10:16:49.818Z,101293.98
2019-05-07T10:19:22.237Z,101297.23
2019-05-07T10:21:53.699Z,101295.45
2019-05-07T10:24:25.068Z,101290.49
2019-05-07T10:26:56.491Z,101295.77
2019-05-07T10:29:27.960Z,101283.75
2019-05-07T10:32:02.094Z,101285.24
2019-05-07T10:34:33.025Z,101278.78
2019-05-07T10:37:04.341Z,101280.32
2019-05-07T10:39:35.619Z,101278.13
2019-05-07T10:42:07.064Z,101267.24
2019-05-07T10:44:45.049Z,101275.28
2019-05-07T10:47:47.168Z,101270.66
2019-05-07T10:50:36.388Z,101268.80
2019-05-07T10:53:02.580Z,101265.44
2019-05-07T10:55:34.171Z,101259.97
2019-05-07T10:58:05.426Z,101253.14
2019-05-07T11:00:36.813Z,101248.03
2019-05-07T11:03:08.169Z,101234.72
2019-05-07T11:05:41.692Z,101237.06
2019-05-07T11:08:12.274Z,101232.64
2019-05-07T11:10:43.636Z,101229.31
2019-05-07T11:13:14.858Z,101228.52
2019-05-07T11:15:48.639Z,101222.08
2019-05-07T11:18:28.167Z,101220.73
2019-05-07T11:20:59.535Z,101219.56
2019-05-07T11:23:32.677Z,101211.62
2019-05-07T11:26:03.673Z,101217.63
2019-05-07T11:28:34.967Z,101211.52
2019-05-07T11:31:06.374Z,101201.70
2019-05-07T11:33:37.537Z,101203.90
2019-05-07T11:36:08.811Z,101196.59
2019-05-07T11:38:41.894Z,101201.12
2019-05-07T11:41:12.926Z,101211.91
2019-05-07T11:43:57.472Z,101200.24
2019-05-07T11:46:52.606Z,101202.75
2019-05-07T11:49:29.285Z,101200.41
2019-05-07T11:52:08.083Z,101196.97
2019-05-07T11:54:39.222Z,101190.73
2019-05-07T11:57:11.665Z,101185.47
2019-05-07T11:59:43.012Z,101182.72
2019-05-07T12:02:14.380Z,101180.84
2019-05-07T12:04:45.634Z,101179.08
2019-05-07T12:07:16.888Z,101184.61
2019-05-07T12:09:48.269Z,101191.47
2019-05-07T12:12:19.454Z,101190.66
2019-05-07T12:14:51.872Z,101190.59
2019-05-07T12:17:23.215Z,101190.98
2019-05-07T12:19:54.472Z,101188.27
2019-05-07T12:22:42.893Z,101185.34
2019-05-07T12:25:14.252Z,101182.39
2019-05-07T12:27:45.875Z,101183.56
2019-05-07T12:30:25.801Z,101186.59
2019-05-07T12:33:18.551Z,101187.06
2019-05-07T12:35:49.829Z,101183.88
2019-05-07T12:38:21.910Z,101185.42
2019-05-07T12:40:53.359Z,101176.80
2019-05-07T12:43:24.536Z,101183.02
2019-05-07T12:45:55.874Z,101174.84
2019-05-07T12:48:27.132Z,101171.14
2019-05-07T12:50:58.395Z,101177.17
2019-05-07T12:53:43.409Z,101164.05
2019-05-07T12:56:14.697Z,101164.22
2019-05-07T12:58:46.030Z,101154.32
2019-05-07T13:01:38.964Z,101157.17
2019-05-07T13:04:13.312Z,101141.38
2019-05-07T13:06:52.612Z,101140.58
2019-05-07T13:09:23.869Z,101131.63
2019-05-07T13:11:55.120Z,101133.16
2019-05-07T13:14:26.491Z,101121.16
2019-05-07T13:16:57.717Z,101120.72
2019-05-07T13:19:29.093Z,101126.59
2019-05-07T13:22:02.304Z,101124.81
2019-05-07T13:24:33.172Z,101121.42
2019-05-07T13:27:04.535Z,101119.18
2019-05-07T13:29:35.814Z,101110.14
2019-05-07T13:32:07.228Z,101109.17
2019-05-07T13:34:38.789Z,101102.33
2019-05-07T13:37:15.271Z,101096.00
2019-05-07T13:39:52.741Z,101097.77
2019-05-07T13:43:02.865Z,101087.94
2019-05-07T13:45:44.417Z,101090.82
2019-05-07T13:48:22.364Z,101088.71
2019-05-07T13:50:53.728Z,101079.25
2019-05-07T13:53:25.433Z,101080.64
2019-05-07T13:55:56.895Z,101072.33
2019-05-07T13:58:28.042Z,101071.23
2019-05-07T14:01:19.796Z,101072.15
2019-05-07T14:03:51.016Z,101069.65
2019-05-07T14:06:43.066Z,101069.77
2019-05-07T14:09:23.941Z,101066.39
2019-05-07T14:11:54.750Z,101065.23
2019-05-07T14:14:26.228Z,101061.15
2019-05-07T14:16:57.569Z,101059.96
2019-05-07T14:19:28.943Z,101057.72
2019-05-07T14:22:00.260Z,101054.29
2019-05-07T14:24:32.784Z,101056.35
2019-05-07T14:27:04.388Z,101053.55
2019-05-07T14:29:35.544Z,101048.44
2019-05-07T14:32:31.434Z,101045.79
2019-05-07T14:35:20.317Z,101045.42
2019-05-07T14:37:57.370Z,101038.91
2019-05-07T14:40:28.677Z,101037.56
2019-05-07T14:43:05.725Z,101027.09
2019-05-07T14:45:37.161Z,101029.06
2019-05-07T14:48:08.431Z,101026.33
2019-05-07T14:50:41.926Z,101019.54
2019-05-07T14:53:12.744Z,101021.18
2019-05-07T14:55:44.086Z,101004.42
2019-05-07T14:58:15.531Z,101006.15
2019-05-07T15:00:46.855Z,101008.94
2019-05-07T15:03:19.140Z,101000.02
2019-05-07T15:05:52.501Z,100995.12
2019-05-07T15:08:23.548Z,100996.57
2019-05-07T15:10:54.804Z,100996.95
2019-05-07T15:13:26.292Z,100989.72
2019-05-07T15:15:57.554Z,100990.16
2019-05-07T15:18:48.298Z,100992.26
2019-05-07T15:21:19.589Z,100989.95
2019-05-07T15:23:52.981Z,100988.70
2019-05-07T15:26:24.845Z,100990.17
2019-05-07T15:29:11.875Z,100993.44
2019-05-07T15:32:03.224Z,100978.68
2019-05-07T15:34:34.372Z,100976.05
2019-05-07T15:37:05.802Z,100977.98
2019-05-07T15:39:37.030Z,100981.40
2019-05-07T15:42:08.414Z,100978.27
2019-05-07T15:44:39.540Z,100973.61
2019-05-07T15:47:15.792Z,100971.03
2019-05-07T15:49:46.955Z,100967.33
2019-05-07T15:52:23.912Z,100971.56
2019-05-07T15:54:55.174Z,100963.56
2019-05-07T15:57:28.388Z,100964.06
2019-05-07T16:00:09.297Z,100959.28
2019-05-07T16:02:45.323Z,100960.62
2019-05-07T16:05:17.187Z,100954.41
2019-05-07T16:07:50.202Z,100950.25
2019-05-07T16:10:23.260Z,100946.63
2019-05-07T16:12:54.803Z,100953.23
2019-05-07T16:15:26.279Z,100944.07
2019-05-07T16:18:02.843Z,100944.84
2019-05-07T16:20:34.221Z,100941.34
2019-05-07T16:23:14.724Z,100940.02
2019-05-07T16:25:38.243Z,100937.02
2019-05-07T16:28:09.473Z,100932.39
2019-05-07T16:30:42.626Z,100930.00
2019-05-07T16:33:13.622Z,100933.53
2019-05-07T16:35:44.895Z,100928.53
2019-05-07T16:38:18.102Z,100932.59
2019-05-07T16:40:49.020Z,100929.00
2019-05-07T16:43:21.962Z,100920.41
2019-05-07T16:45:53.200Z,100917.61
2019-05-07T16:48:24.455Z,100912.47
2019-05-07T16:50:55.736Z,100913.91
2019-05-07T16:53:30.117Z,100908.69
2019-05-07T16:55:59.822Z,100908.00
2019-05-07T16:58:42.758Z,100899.91
2019-05-07T17:01:14.379Z,100906.90
2019-05-07T17:03:53.834Z,100911.52
2019-05-07T17:06:25.378Z,100903.34
2019-05-07T17:09:15.532Z,100898.89
2019-05-07T17:11:49.608Z,100900.55
2019-05-07T17:14:20.833Z,100900.88
2019-05-07T17:16:52.068Z,100896.48
2019-05-07T17:19:25.560Z,100901.68
2019-05-07T17:21:56.722Z,100896.42
2019-05-07T17:24:28.520Z,100897.78
2019-05-07T17:26:59.720Z,100897.61
2019-05-07T17:29:32.120Z,100890.01
2019-05-07T17:32:03.421Z,100888.53
2019-05-07T17:34:34.620Z,100886.31
2019-05-07T17:37:05.945Z,100887.16
2019-05-07T17:39:37.142Z,100890.92
2019-05-07T17:42:08.318Z,100891.01
2019-05-07T17:44:39.631Z,100893.08
2019-05-07T17:47:12.710Z,100893.23
2019-05-07T17:49:43.757Z,100890.06
2019-05-07T17:52:14.953Z,100889.02
2019-05-07T17:54:46.178Z,100891.44
2019-05-07T17:57:17.310Z,100887.53
2019-05-07T17:59:48.564Z,100885.95
2019-05-07T18:02:38.572Z,100887.87
2019-05-07T18:05:11.898Z,100881.06
2019-05-07T18:07:43.233Z,100882.48
2019-05-07T18:10:14.463Z,100879.48
2019-05-07T18:12:46.914Z,100876.39
2019-05-07T18:15:19.156Z,100881.91
2019-05-07T18:18:03.038Z,100880.61
2019-05-07T18:20:34.348Z,100883.92
2019-05-07T18:23:08.732Z,100875.59
2019-05-07T18:25:38.807Z,100876.09
2019-05-07T18:28:12.313Z,100876.61
2019-05-07T18:30:43.498Z,100873.60
2019-05-07T18:33:28.815Z,100878.24
2019-05-07T18:35:59.939Z,100872.39
2019-05-07T18:38:32.952Z,100872.51
2019-05-07T18:41:04.160Z,100871.63
2019-05-07T18:43:35.470Z,100873.94
2019-05-07T18:46:06.683Z,100872.08
2019-05-07T18:48:37.939Z,100868.53
2019-05-07T18:51:09.185Z,100870.48
2019-05-07T18:53:42.335Z,100866.89
2019-05-07T18:56:13.300Z,100871.34
2019-05-07T18:58:44.569Z,100865.94
2019-05-07T19:01:17.633Z,100864.88
2019-05-07T19:03:49.344Z,100858.47
2019-05-07T19:06:22.334Z,100870.13
2019-05-07T19:08:53.623Z,100861.52
2019-05-07T19:11:25.026Z,100862.20
2019-05-07T19:13:56.302Z,100861.55
2019-05-07T19:16:27.548Z,100868.70
2019-05-07T19:18:58.725Z,100869.02
2019-05-07T19:21:32.022Z,100872.59
2019-05-07T19:24:03.177Z,100871.45
2019-05-07T19:26:34.351Z,100877.22
2019-05-07T19:29:05.800Z,100876.73
2019-05-07T19:31:37.016Z,100876.20
2019-05-07T19:34:09.427Z,100875.09
2019-05-07T19:36:42.425Z,100870.47
2019-05-07T19:39:14.986Z,100869.59
2019-05-07T19:41:47.375Z,100872.89
2019-05-07T19:44:25.504Z,100869.20
2019-05-07T19:46:57.531Z,100871.98
2019-05-07T19:49:29.750Z,100868.86
2019-05-07T19:52:05.761Z,100871.28
2019-05-07T19:55:00.749Z,100868.44
2019-05-07T19:57:44.559Z,100862.97
2019-05-07T20:00:22.953Z,100858.92
2019-05-07T20:02:57.346Z,100861.98
2019-05-07T20:05:37.272Z,100861.10
2019-05-07T20:08:15.145Z,100865.71
2019-05-07T20:10:58.292Z,100865.19
2019-05-07T20:13:32.462Z,100860.31
2019-05-07T20:16:22.828Z,100861.41
2019-05-07T20:19:00.113Z,100862.66
2019-05-07T20:21:32.940Z,100862.58
2019-05-07T20:24:13.302Z,100857.92
2019-05-07T20:26:45.589Z,100856.30
2019-05-07T20:29:23.260Z,100856.11
2019-05-07T20:31:58.602Z,100851.44
2019-05-07T20:34:33.235Z,100845.66
2019-05-07T20:37:05.114Z,100844.98
2019-05-07T20:39:49.354Z,100840.00
2019-05-07T20:42:23.180Z,100827.67
2019-05-07T20:45:08.053Z,100822.09
2019-05-07T20:47:43.697Z,100816.25
2019-05-07T20:50:22.508Z,100810.40
2019-05-07T20:52:53.713Z,100800.02
2019-05-07T20:55:40.114Z,100797.30
2019-05-07T20:58:12.802Z,100804.90
2019-05-07T21:00:44.290Z,100794.32
2019-05-07T21:03:23.747Z,100794.37
2019-05-07T21:05:55.032Z,100790.41
2019-05-07T21:08:26.253Z,100793.81
2019-05-07T21:10:57.572Z,100787.16
2019-05-07T21:13:32.455Z,100784.39
2019-05-07T21:16:04.364Z,100782.63
2019-05-07T21:18:35.630Z,100775.38
2019-05-07T21:21:07.009Z,100779.17
2019-05-07T21:23:38.210Z,100777.64
2019-05-07T21:26:09.506Z,100777.97
2019-05-07T21:28:42.879Z,100773.98
2019-05-07T21:31:13.713Z,100776.41
2019-05-07T21:33:44.890Z,100779.42
2019-05-07T21:36:16.099Z,100769.17
2019-05-07T21:38:47.319Z,100764.64
2019-05-07T21:41:18.567Z,100765.67
2019-05-07T21:43:49.923Z,100761.93
2019-05-07T21:46:22.235Z,100754.42
2019-05-07T21:48:53.862Z,100754.11
2019-05-07T21:51:25.100Z,100746.98
2019-05-07T21:54:05.817Z,100739.78
2019-05-07T21:57:02.142Z,100741.44
2019-05-07T21:59:35.826Z,100734.06
2019-05-07T22:02:13.984Z,100732.30
2019-05-07T22:04:47.486Z,100726.92
2019-05-07T22:07:22.587Z,100721.33
2019-05-07T22:09:54.336Z,100731.23
2019-05-07T22:12:25.673Z,100726.70
2019-05-07T22:14:56.833Z,100724.44
2019-05-07T22:17:28.057Z,100722.08
2019-05-07T22:19:59.345Z,100721.98
2019-05-07T22:22:32.010Z,100723.55
2019-05-07T22:25:05.304Z,100717.58
2019-05-07T22:27:36.341Z,100717.90
2019-05-07T22:30:12.501Z,100710.42
2019-05-07T22:32:53.406Z,100709.10
2019-05-07T22:35:29.222Z,100697.80
2019-05-07T22:38:00.474Z,100688.77
2019-05-07T22:40:32.124Z,100682.86
2019-05-07T22:43:03.515Z,100675.23
2019-05-07T22:45:34.805Z,100674.03
2019-05-07T22:48:06.028Z,100678.44
2019-05-07T22:50:37.326Z,100673.24
2019-05-07T22:53:08.623Z,100669.00
2019-05-07T22:55:41.809Z,100668.96
2019-05-07T22:58:37.664Z,100669.88
2019-05-07T23:01:12.952Z,100666.97
2019-05-07T23:03:43.674Z,100657.06
2019-05-07T23:06:14.893Z,100656.38
2019-05-07T23:08:46.165Z,100657.02
2019-05-07T23:11:17.477Z,100650.30
2019-05-07T23:13:48.647Z,100651.17
2019-05-07T23:16:19.803Z,100643.97
2019-05-07T23:18:51.043Z,100639.17
2019-05-07T23:21:24.301Z,100630.63
2019-05-07T23:23:55.175Z,100625.89
2019-05-07T23:26:26.459Z,100617.24
2019-05-07T23:28:57.672Z,100609.99
2019-05-07T23:31:28.862Z,100609.83
2019-05-07T23:34:01.939Z,100602.33
2019-05-07T23:36:32.966Z,100602.77
2019-05-07T23:39:06.635Z,100594.36
2019-05-07T23:41:46.565Z,100591.23
2019-05-07T23:44:18.814Z,100589.91
2019-05-07T23:46:51.958Z,100583.36
2019-05-07T23:49:23.365Z,100585.09
2019-05-07T23:51:54.700Z,100585.02
2019-05-07T23:54:26.306Z,100583.36
2019-05-07T23:57:05.935Z,100573.06
2019-05-07T23:59:32.699Z,100569.37
